Time;durP1;ratioP1;P1;durP2;ratioP2;P2;SDS_P1;SDS_P2;PMS_P1;PMS_P2;Temp;Humidity;BMP_temperature;BMP_pressure;BME280_temperature;BME280_humidity;BME280_pressure;Samples;Min_cycle;Max_cycle;Signal;HPM_P1;HPM_P2
2023/04/06 16:08:51;;;;;;;;;;;19.30;31.80;;;;;;3031937;19;5304;-76
2023/04/06 16:22:22;;;;;;;;;;;19.80;33.60;;;;;;3011241;19;5143;-67
2023/04/06 16:23:23;;;;;;;;;;;19.80;33.70;;;;;;3022196;19;5117;-76
2023/04/06 16:24:24;;;;;;;;;;;19.90;33.50;;;;;;3042369;19;4928;-72
2023/04/06 16:25:24;;;;;;;;;;;20.00;33.30;;;;;;3041723;19;5033;-72
2023/04/06 16:26:26;;;;;;;;;;;20.10;33.20;;;;;;3045143;19;5285;-71
2023/04/06 16:27:26;;;;;;;;;;;20.10;33.20;;;;;;3046451;19;5069;-72
2023/04/06 16:28:27;;;;;;;;;;;20.10;33.10;;;;;;3048301;19;5071;-73
2023/04/06 16:29:30;;;;;;;;;;;20.10;33.10;;;;;;3047592;19;4719;-71
2023/04/06 16:30:31;;;;;;;;;;;20.10;33.10;;;;;;3039688;19;5074;-71
2023/04/06 16:31:32;;;;;;;;;;;20.00;33.10;;;;;;3045716;19;4947;-71
2023/04/06 16:32:32;;;;;;;;;;;20.10;33.20;;;;;;3050074;19;5434;-71
2023/04/06 16:33:33;;;;;;;;;;;20.10;33.10;;;;;;3050355;19;5373;-72
2023/04/06 16:34:34;;;;;;;;;;;20.10;33.10;;;;;;3045887;19;5293;-68
2023/04/06 16:35:34;;;;;;;;;;;20.10;33.20;;;;;;3041482;19;5411;-71
2023/04/06 16:36:36;;;;;;;;;;;20.10;33.10;;;;;;3045040;19;5221;-72
2023/04/06 16:37:37;;;;;;;;;;;20.10;33.80;;;;;;3045948;19;5234;-72
2023/04/06 16:38:37;;;;;;;;;;;20.00;33.10;;;;;;3048393;19;4524;-71
2023/04/06 16:39:38;;;;;;;;;;;20.00;33.10;;;;;;3047086;19;5485;-72
2023/04/06 16:40:39;;;;;;;;;;;20.00;33.00;;;;;;3047029;19;5458;-72
2023/04/06 16:41:40;;;;;;;;;;;20.00;33.10;;;;;;3048300;19;4485;-72
2023/04/06 16:42:43;;;;;;;;;;;20.00;33.20;;;;;;3044505;19;5008;-71
2023/04/06 16:43:45;;;;;;;;;;;20.00;33.20;;;;;;3047859;19;4624;-72
2023/04/06 16:44:47;;;;;;;;;;;20.00;33.20;;;;;;3046514;19;5452;-72
2023/04/06 16:45:51;;;;;;;;;;;20.00;33.20;;;;;;3049968;19;5435;-71
2023/04/06 16:46:52;;;;;;;;;;;20.00;33.10;;;;;;3048503;19;5009;-72
2023/04/06 16:47:52;;;;;;;;;;;20.00;33.30;;;;;;3042803;19;5186;-71
2023/04/06 16:48:53;;;;;;;;;;;20.00;33.30;;;;;;3044985;19;5542;-71
2023/04/06 16:49:54;;;;;;;;;;;20.00;33.50;;;;;;3046936;19;5407;-71
2023/04/06 16:50:54;;;;;;;;;;;20.00;33.40;;;;;;3048462;19;5542;-71
2023/04/06 16:52:00;;;;;;;;;;;20.00;33.30;;;;;;3043949;19;4983;-72
2023/04/06 16:53:01;;;;;;;;;;;20.00;33.30;;;;;;3044673;19;4896;-71
2023/04/06 16:54:02;;;;;;;;;;;20.00;33.40;;;;;;3046120;19;4953;-71
2023/04/06 16:55:03;;;;;;;;;;;20.00;33.60;;;;;;3045073;19;4917;-72
2023/04/06 16:56:07;;;;;;;;;;;20.00;33.40;;;;;;3045694;19;4729;-71
2023/04/06 16:57:08;;;;;;;;;;;20.00;33.50;;;;;;3045076;19;4992;-71
2023/04/06 16:58:08;;;;;;;;;;;20.00;33.30;;;;;;3046530;19;4992;-71
2023/04/06 16:59:09;;;;;;;;;;;20.00;33.40;;;;;;3047890;19;5123;-72
2023/04/06 17:00:10;;;;;;;;;;;20.00;33.30;;;;;;3046287;19;5555;-71
2023/04/06 17:01:25;;;;;;;;;;;20.00;33.40;;;;;;3048231;19;5002;-74
2023/04/06 17:02:25;;;;;;;;;;;20.00;33.40;;;;;;2943798;19;2004897;-73
2023/04/06 17:03:27;;;;;;;;;;;20.00;33.60;;;;;;3046088;19;4947;-74
2023/04/06 17:04:28;;;;;;;;;;;20.00;33.40;;;;;;3046687;19;5048;-74
2023/04/06 17:05:30;;;;;;;;;;;19.90;33.50;;;;;;3044252;19;4998;-74
2023/04/06 17:06:31;;;;;;;;;;;19.90;33.60;;;;;;3047528;19;6133;-74
2023/04/06 17:07:32;;;;;;;;;;;19.90;33.60;;;;;;3044399;19;5430;-74
2023/04/06 17:08:32;;;;;;;;;;;19.90;33.50;;;;;;3044965;19;5056;-74
2023/04/06 17:09:33;;;;;;;;;;;19.90;33.50;;;;;;3045665;19;5716;-74
2023/04/06 17:10:34;;;;;;;;;;;19.90;33.50;;;;;;3048054;19;5039;-75
2023/04/06 17:11:35;;;;;;;;;;;19.90;33.50;;;;;;3046060;19;4906;-74
2023/04/06 17:12:35;;;;;;;;;;;19.90;33.40;;;;;;3046039;19;4962;-74
2023/04/06 17:13:36;;;;;;;;;;;19.90;33.40;;;;;;3047906;19;5273;-74
2023/04/06 17:14:36;;;;;;;;;;;19.90;33.40;;;;;;3047356;19;4889;-74
2023/04/06 17:15:37;;;;;;;;;;;19.80;33.50;;;;;;3046557;19;5044;-74
2023/04/06 17:16:38;;;;;;;;;;;19.80;33.60;;;;;;3048225;19;5002;-75
2023/04/06 17:17:39;;;;;;;;;;;19.80;33.60;;;;;;3047168;19;4743;-74
2023/04/06 17:18:40;;;;;;;;;;;19.80;33.50;;;;;;3046766;19;5543;-74
2023/04/06 17:19:40;;;;;;;;;;;19.80;33.60;;;;;;3046448;19;5372;-75
2023/04/06 17:20:42;;;;;;;;;;;19.80;33.70;;;;;;3044986;19;4628;-74
2023/04/06 17:21:42;;;;;;;;;;;19.80;33.50;;;;;;3044691;19;5074;-74
2023/04/06 17:22:45;;;;;;;;;;;19.80;33.70;;;;;;3040992;19;4699;-74
2023/04/06 17:23:46;;;;;;;;;;;19.80;33.50;;;;;;3042219;19;6410;-75
2023/04/06 17:24:47;;;;;;;;;;;19.80;33.40;;;;;;3042814;19;5432;-75
2023/04/06 17:25:49;;;;;;;;;;;19.70;33.30;;;;;;3048245;19;5290;-75
2023/04/06 17:26:50;;;;;;;;;;;19.70;33.50;;;;;;3048128;19;5456;-75
2023/04/06 17:27:50;;;;;;;;;;;19.70;33.30;;;;;;3047772;19;5455;-75
2023/04/06 17:28:51;;;;;;;;;;;19.70;33.40;;;;;;3046426;19;4958;-76
2023/04/06 17:29:52;;;;;;;;;;;19.70;33.60;;;;;;3047433;19;5145;-76
2023/04/06 17:30:52;;;;;;;;;;;19.70;33.60;;;;;;3047206;19;5119;-76
2023/04/06 17:31:53;;;;;;;;;;;19.60;33.50;;;;;;3048092;19;4958;-75
2023/04/06 17:32:53;;;;;;;;;;;19.70;33.60;;;;;;3049020;19;5136;-78
2023/04/06 17:33:54;;;;;;;;;;;19.60;33.40;;;;;;3048129;19;4900;-78
2023/04/06 17:34:55;;;;;;;;;;;19.60;33.20;;;;;;3047336;19;5053;-77
2023/04/06 17:35:55;;;;;;;;;;;19.60;33.50;;;;;;3044578;19;5229;-76
2023/04/06 17:36:56;;;;;;;;;;;19.60;33.50;;;;;;3045366;19;5288;-76
2023/04/06 17:37:57;;;;;;;;;;;19.60;33.80;;;;;;3048332;19;4676;-76
2023/04/06 17:38:57;;;;;;;;;;;19.70;33.80;;;;;;3026335;19;4918;-76
2023/04/06 17:39:58;;;;;;;;;;;19.70;33.70;;;;;;3035783;19;5530;-76
2023/04/06 17:41:00;;;;;;;;;;;19.70;33.90;;;;;;3037842;19;5422;-76
2023/04/06 17:42:03;;;;;;;;;;;19.70;34.40;;;;;;3048201;19;4447;-76
2023/04/06 17:43:04;;;;;;;;;;;19.70;33.80;;;;;;3010780;19;4699;-77
2023/04/06 17:44:05;;;;;;;;;;;19.70;33.80;;;;;;3043822;19;5186;-76
2023/04/06 17:45:06;;;;;;;;;;;19.70;33.60;;;;;;3025463;19;5089;-77
2023/04/06 17:46:07;;;;;;;;;;;19.80;33.80;;;;;;3034796;19;5427;-78
2023/04/06 17:47:08;;;;;;;;;;;19.70;33.80;;;;;;3041871;19;4851;-78
2023/04/06 17:48:30;;;;;;;;;;;19.80;33.90;;;;;;3009566;19;4520;-80
2023/04/06 17:49:31;;;;;;;;;;;19.80;33.80;;;;;;2947275;19;2004238;-77
2023/04/06 17:50:31;;;;;;;;;;;19.80;33.70;;;;;;3039184;19;5175;-76
2023/04/06 17:51:32;;;;;;;;;;;19.80;33.70;;;;;;3042035;19;5134;-75
2023/04/06 17:52:33;;;;;;;;;;;19.80;33.70;;;;;;3034052;19;5497;-76
2023/04/06 17:53:35;;;;;;;;;;;19.80;33.80;;;;;;3039117;19;4551;-76
2023/04/06 17:54:36;;;;;;;;;;;19.80;33.80;;;;;;3046406;19;4790;-75
2023/04/06 17:55:36;;;;;;;;;;;19.80;33.80;;;;;;3045661;19;5060;-76
2023/04/06 17:56:37;;;;;;;;;;;19.80;33.60;;;;;;3046761;19;5266;-76
2023/04/06 17:57:38;;;;;;;;;;;19.80;33.80;;;;;;3044664;19;5119;-76
2023/04/06 17:58:39;;;;;;;;;;;19.80;33.80;;;;;;3050353;19;4989;-78
2023/04/06 17:59:40;;;;;;;;;;;19.70;33.70;;;;;;3051168;19;4737;-77
2023/04/06 18:00:40;;;;;;;;;;;19.70;33.70;;;;;;3050566;19;5029;-77
2023/04/06 18:01:41;;;;;;;;;;;19.70;33.70;;;;;;3049393;19;4936;-77
2023/04/06 18:02:42;;;;;;;;;;;19.70;33.80;;;;;;3049988;19;4922;-77
2023/04/06 18:03:42;;;;;;;;;;;19.70;33.80;;;;;;3050679;19;5492;-77
2023/04/06 18:04:43;;;;;;;;;;;19.70;33.70;;;;;;3053161;19;4993;-76
2023/04/06 18:05:44;;;;;;;;;;;19.70;34.40;;;;;;3047920;19;5035;-77
2023/04/06 18:06:45;;;;;;;;;;;19.70;34.00;;;;;;3048944;19;5082;-77
2023/04/06 18:07:46;;;;;;;;;;;19.60;34.00;;;;;;3049258;19;5106;-77
2023/04/06 18:08:47;;;;;;;;;;;19.70;34.20;;;;;;3048886;19;5151;-77
2023/04/06 18:09:47;;;;;;;;;;;19.70;34.20;;;;;;3043562;19;5082;-77
2023/04/06 18:10:48;;;;;;;;;;;19.80;34.20;;;;;;3048480;19;4806;-77
2023/04/06 18:11:49;;;;;;;;;;;19.90;34.10;;;;;;3047847;19;5629;-78
2023/04/06 18:12:50;;;;;;;;;;;20.00;34.00;;;;;;3045229;19;5063;-77
2023/04/06 18:13:50;;;;;;;;;;;20.00;33.90;;;;;;3049806;19;4870;-77
2023/04/06 18:14:51;;;;;;;;;;;20.00;33.80;;;;;;3043988;19;5400;-78
2023/04/06 18:15:52;;;;;;;;;;;20.00;33.90;;;;;;3049044;19;5031;-75
2023/04/06 18:16:53;;;;;;;;;;;20.00;33.80;;;;;;3042020;19;4442;-77
2023/04/06 18:17:54;;;;;;;;;;;20.10;34.00;;;;;;3047349;19;5045;-77
2023/04/06 18:18:55;;;;;;;;;;;20.00;33.90;;;;;;3045988;19;5422;-76
2023/04/06 18:19:56;;;;;;;;;;;20.00;34.00;;;;;;3053244;19;5247;-76
2023/04/06 18:20:56;;;;;;;;;;;20.00;34.00;;;;;;3052364;19;4838;-76
2023/04/06 18:21:57;;;;;;;;;;;20.00;34.00;;;;;;3046226;19;5416;-76
2023/04/06 18:22:58;;;;;;;;;;;20.00;34.70;;;;;;3047126;19;5050;-76
2023/04/06 18:23:58;;;;;;;;;;;20.00;34.00;;;;;;3052783;19;5450;-76
2023/04/06 18:25:00;;;;;;;;;;;20.00;34.00;;;;;;3044150;19;4993;-76
2023/04/06 18:26:01;;;;;;;;;;;20.00;34.10;;;;;;3048783;19;5207;-76
2023/04/06 18:27:01;;;;;;;;;;;20.00;34.20;;;;;;3050053;19;4770;-76
2023/04/06 18:28:02;;;;;;;;;;;20.00;34.30;;;;;;3046171;19;5230;-77
2023/04/06 18:29:03;;;;;;;;;;;20.00;34.30;;;;;;3044285;19;4598;-77
2023/04/06 18:30:04;;;;;;;;;;;20.00;34.20;;;;;;3045278;19;4898;-76
2023/04/06 18:31:05;;;;;;;;;;;20.00;34.30;;;;;;3049210;19;4930;-76
2023/04/06 18:32:05;;;;;;;;;;;20.00;34.30;;;;;;3044654;19;5031;-76
2023/04/06 18:33:06;;;;;;;;;;;20.00;34.30;;;;;;3039952;19;5433;-76
2023/04/06 18:34:07;;;;;;;;;;;20.00;34.30;;;;;;3044300;19;5238;-77
2023/04/06 18:35:10;;;;;;;;;;;20.00;34.40;;;;;;3047820;19;4407;-76
2023/04/06 18:36:10;;;;;;;;;;;20.00;34.40;;;;;;3047045;19;4795;-76
2023/04/06 18:37:11;;;;;;;;;;;20.00;34.50;;;;;;3046486;19;5615;-76
2023/04/06 18:38:12;;;;;;;;;;;20.00;34.50;;;;;;3045589;19;5093;-76
2023/04/06 18:39:12;;;;;;;;;;;20.00;34.50;;;;;;3046158;19;5239;-76
2023/04/06 18:40:33;;;;;;;;;;;20.00;34.40;;;;;;3047874;19;5432;-77
2023/04/06 18:41:34;;;;;;;;;;;20.00;34.50;;;;;;3040444;19;4462;-76
2023/04/06 18:42:34;;;;;;;;;;;20.00;34.60;;;;;;3048311;19;5495;-72
2023/04/06 18:43:36;;;;;;;;;;;20.00;34.60;;;;;;3047595;19;5660;-72
2023/04/06 18:44:36;;;;;;;;;;;20.00;34.70;;;;;;3048800;19;5076;-72
2023/04/06 18:45:37;;;;;;;;;;;20.10;34.70;;;;;;3048676;19;5189;-72
2023/04/06 18:46:38;;;;;;;;;;;20.00;34.70;;;;;;3043410;19;5471;-72
2023/04/06 18:47:39;;;;;;;;;;;19.90;34.70;;;;;;3049435;19;5473;-72
2023/04/06 18:48:40;;;;;;;;;;;19.90;34.70;;;;;;3046749;19;4478;-72
2023/04/06 18:49:41;;;;;;;;;;;19.90;34.80;;;;;;3049852;19;5097;-72
2023/04/06 18:50:51;;;;;;;;;;;19.90;34.70;;;;;;3050012;19;5012;-72
2023/04/06 18:51:52;;;;;;;;;;;19.90;34.90;;;;;;3035761;19;4845;-72
2023/04/06 18:52:53;;;;;;;;;;;19.90;34.90;;;;;;3045360;19;4937;-72
2023/04/06 18:53:53;;;;;;;;;;;19.90;34.90;;;;;;3045911;19;4974;-72
2023/04/06 18:54:54;;;;;;;;;;;19.90;35.00;;;;;;3044611;19;5096;-72
2023/04/06 18:55:55;;;;;;;;;;;19.90;34.90;;;;;;3047766;19;4619;-73
2023/04/06 18:56:56;;;;;;;;;;;19.90;35.10;;;;;;3022348;19;5318;-72
2023/04/06 18:57:57;;;;;;;;;;;19.90;35.10;;;;;;3049511;19;4426;-72
2023/04/06 18:58:57;;;;;;;;;;;19.90;35.10;;;;;;3048375;19;6393;-72
2023/04/06 18:59:58;;;;;;;;;;;19.90;35.10;;;;;;3048781;19;5035;-72
2023/04/06 19:00:59;;;;;;;;;;;19.90;35.10;;;;;;3049034;19;5460;-73
2023/04/06 19:02:00;;;;;;;;;;;19.90;35.20;;;;;;3049722;19;4879;-73
2023/04/06 19:03:01;;;;;;;;;;;19.80;35.20;;;;;;3048945;19;5447;-72
2023/04/06 19:04:01;;;;;;;;;;;19.80;35.20;;;;;;3049394;19;5194;-71
2023/04/06 19:05:02;;;;;;;;;;;19.80;35.30;;;;;;3048982;19;4942;-72
2023/04/06 19:06:06;;;;;;;;;;;19.80;35.30;;;;;;3046260;19;5032;-73
2023/04/06 19:07:07;;;;;;;;;;;19.80;35.40;;;;;;3050183;19;5378;-73
2023/04/06 19:08:08;;;;;;;;;;;19.80;35.30;;;;;;3049071;19;4931;-72
2023/04/06 19:09:08;;;;;;;;;;;19.80;35.40;;;;;;3048246;19;5204;-73
2023/04/06 19:10:09;;;;;;;;;;;19.80;35.50;;;;;;3048889;19;9910;-72
2023/04/06 19:11:10;;;;;;;;;;;19.80;35.50;;;;;;3048865;19;5029;-72
2023/04/06 19:12:11;;;;;;;;;;;19.70;35.40;;;;;;3049589;19;5513;-72
2023/04/06 19:13:12;;;;;;;;;;;19.80;35.60;;;;;;3048952;19;4368;-73
2023/04/06 19:14:12;;;;;;;;;;;19.70;35.70;;;;;;3045452;19;4857;-72
2023/04/06 19:15:13;;;;;;;;;;;19.70;35.60;;;;;;3046850;19;5029;-72
2023/04/06 19:16:14;;;;;;;;;;;19.70;35.70;;;;;;3046826;19;1594;-72
2023/04/06 19:17:15;;;;;;;;;;;19.60;35.60;;;;;;3046126;19;5203;-72
2023/04/06 19:18:15;;;;;;;;;;;19.70;35.70;;;;;;3048335;19;4943;-72
2023/04/06 19:19:17;;;;;;;;;;;19.70;35.90;;;;;;3048189;19;5277;-72
2023/04/06 19:20:17;;;;;;;;;;;19.70;36.10;;;;;;3044982;19;5044;-72
2023/04/06 19:21:19;;;;;;;;;;;19.70;36.10;;;;;;3047705;19;5064;-72
2023/04/06 19:22:20;;;;;;;;;;;19.70;36.20;;;;;;3046687;19;6523;-72
2023/04/06 19:23:21;;;;;;;;;;;19.70;36.20;;;;;;3047402;19;4714;-72
2023/04/06 19:24:22;;;;;;;;;;;19.70;36.10;;;;;;3048103;19;5003;-72
2023/04/06 19:25:22;;;;;;;;;;;19.80;36.10;;;;;;3047154;19;6268;-72
2023/04/06 19:26:25;;;;;;;;;;;19.80;36.10;;;;;;3047889;19;4818;-73
2023/04/06 19:27:26;;;;;;;;;;;19.80;36.20;;;;;;3048788;19;5046;-72
2023/04/06 19:28:27;;;;;;;;;;;19.80;36.20;;;;;;3047723;19;5085;-72
2023/04/06 19:29:27;;;;;;;;;;;19.80;36.10;;;;;;3047635;19;5069;-73
2023/04/06 19:30:28;;;;;;;;;;;19.80;36.10;;;;;;3047145;19;5188;-72
2023/04/06 19:31:29;;;;;;;;;;;19.80;36.10;;;;;;3047883;19;5447;-73
2023/04/06 19:32:29;;;;;;;;;;;19.80;36.20;;;;;;3046566;19;5059;-72
2023/04/06 19:33:30;;;;;;;;;;;19.80;36.10;;;;;;3047399;19;4928;-73
2023/04/06 19:34:31;;;;;;;;;;;19.80;36.10;;;;;;3047034;19;5379;-72
2023/04/06 19:35:31;;;;;;;;;;;19.80;36.20;;;;;;3045451;19;4530;-72
2023/04/06 19:36:32;;;;;;;;;;;19.80;36.20;;;;;;3047336;19;5080;-72
2023/04/06 19:37:33;;;;;;;;;;;19.80;36.20;;;;;;3046963;19;4984;-72
2023/04/06 19:38:34;;;;;;;;;;;19.80;36.20;;;;;;3045010;19;5293;-72
2023/04/06 19:39:36;;;;;;;;;;;19.80;36.30;;;;;;3045490;19;4936;-72
2023/04/06 19:40:36;;;;;;;;;;;19.80;36.30;;;;;;3046650;19;5249;-72
2023/04/06 19:41:37;;;;;;;;;;;19.80;36.30;;;;;;3046246;19;5172;-72
2023/04/06 19:42:38;;;;;;;;;;;19.80;36.30;;;;;;3048311;19;5297;-71
2023/04/06 19:43:39;;;;;;;;;;;19.80;36.30;;;;;;3046671;19;4923;-72
2023/04/06 19:44:40;;;;;;;;;;;19.80;36.30;;;;;;3046596;19;5437;-72
2023/04/06 19:45:41;;;;;;;;;;;19.80;36.40;;;;;;3046136;19;4820;-72
2023/04/06 19:46:41;;;;;;;;;;;19.80;36.50;;;;;;3047730;19;4982;-72
2023/04/06 19:47:42;;;;;;;;;;;19.80;36.50;;;;;;3048332;19;5125;-72
2023/04/06 19:48:42;;;;;;;;;;;19.70;36.50;;;;;;3048407;19;5025;-73
2023/04/06 19:49:43;;;;;;;;;;;19.80;36.50;;;;;;3046872;19;5186;-72
2023/04/06 19:50:44;;;;;;;;;;;19.70;36.50;;;;;;3045359;19;5018;-72
2023/04/06 19:51:45;;;;;;;;;;;19.70;36.50;;;;;;3045222;19;5018;-72
2023/04/06 19:52:46;;;;;;;;;;;19.70;36.60;;;;;;3048254;19;4998;-76
2023/04/06 19:53:46;;;;;;;;;;;19.80;36.60;;;;;;3048918;19;4539;-76
2023/04/06 19:54:47;;;;;;;;;;;19.70;36.50;;;;;;3047422;19;6218;-76
2023/04/06 19:55:48;;;;;;;;;;;19.70;36.70;;;;;;3047348;19;5080;-76
2023/04/06 19:56:49;;;;;;;;;;;19.70;36.60;;;;;;3046130;19;5264;-76
2023/04/06 19:57:49;;;;;;;;;;;19.70;36.70;;;;;;3049238;19;5123;-77
2023/04/06 19:58:50;;;;;;;;;;;19.70;36.70;;;;;;3047810;19;4866;-76
2023/04/06 19:59:52;;;;;;;;;;;19.70;36.80;;;;;;3046338;19;4926;-76
2023/04/06 20:00:53;;;;;;;;;;;19.70;36.90;;;;;;3047435;19;5108;-77
2023/04/06 20:01:54;;;;;;;;;;;19.70;36.90;;;;;;3047076;19;5145;-77
2023/04/06 20:02:54;;;;;;;;;;;19.70;36.90;;;;;;3046554;19;4748;-76
2023/04/06 20:03:55;;;;;;;;;;;19.60;36.90;;;;;;3045779;19;6143;-77
2023/04/06 20:04:56;;;;;;;;;;;19.60;37.00;;;;;;3046453;19;4932;-76
2023/04/06 20:05:56;;;;;;;;;;;19.60;36.90;;;;;;3047052;19;4795;-76
2023/04/06 20:06:57;;;;;;;;;;;19.60;36.90;;;;;;3048961;19;5119;-76
2023/04/06 20:07:58;;;;;;;;;;;19.60;37.00;;;;;;3047930;19;5020;-77
2023/04/06 20:08:58;;;;;;;;;;;19.60;37.00;;;;;;3047918;19;5420;-77
2023/04/06 20:10:02;;;;;;;;;;;19.60;37.00;;;;;;3047001;19;5296;-77
2023/04/06 20:11:03;;;;;;;;;;;19.60;37.00;;;;;;3046384;19;4904;-76
2023/04/06 20:12:04;;;;;;;;;;;19.60;37.00;;;;;;3047138;19;5013;-76
2023/04/06 20:13:05;;;;;;;;;;;19.60;37.20;;;;;;3047355;19;4876;-76
2023/04/06 20:14:06;;;;;;;;;;;19.60;37.70;;;;;;3048324;19;4835;-76
2023/04/06 20:15:07;;;;;;;;;;;19.60;37.20;;;;;;3046820;19;5362;-76
2023/04/06 20:16:08;;;;;;;;;;;19.60;37.20;;;;;;3047225;19;5146;-77
2023/04/06 20:17:08;;;;;;;;;;;19.60;37.20;;;;;;3047718;19;4849;-75
2023/04/06 20:18:09;;;;;;;;;;;19.60;37.20;;;;;;3047485;19;13329;-76
2023/04/06 20:19:10;;;;;;;;;;;19.60;37.30;;;;;;3047288;19;5241;-76
2023/04/06 20:20:10;;;;;;;;;;;19.60;37.40;;;;;;3047918;19;5010;-76
2023/04/06 20:21:11;;;;;;;;;;;19.60;37.40;;;;;;3046868;19;5032;-76
2023/04/06 20:22:12;;;;;;;;;;;19.60;37.30;;;;;;3047852;19;5241;-76
2023/04/06 20:23:12;;;;;;;;;;;19.50;37.30;;;;;;3048474;19;1080;-76
2023/04/06 20:24:14;;;;;;;;;;;19.60;37.50;;;;;;3047501;19;5001;-76
2023/04/06 20:25:15;;;;;;;;;;;19.50;37.40;;;;;;3046661;19;4464;-76
2023/04/06 20:26:16;;;;;;;;;;;19.50;37.50;;;;;;3047190;19;5496;-76
2023/04/06 20:27:17;;;;;;;;;;;19.50;37.50;;;;;;3048939;19;5652;-76
2023/04/06 20:28:18;;;;;;;;;;;19.50;37.50;;;;;;3050670;19;4902;-76
2023/04/06 20:29:19;;;;;;;;;;;19.50;37.50;;;;;;3051551;19;5035;-76
2023/04/06 20:30:20;;;;;;;;;;;19.50;37.50;;;;;;3049483;19;4730;-76
2023/04/06 20:31:25;;;;;;;;;;;19.50;37.50;;;;;;3048895;19;4617;-76
2023/04/06 20:32:26;;;;;;;;;;;19.50;37.50;;;;;;3048368;19;5021;-76
2023/04/06 20:33:27;;;;;;;;;;;19.50;37.50;;;;;;3048974;19;5269;-76
2023/04/06 20:34:27;;;;;;;;;;;19.50;37.50;;;;;;3049402;19;6087;-76
2023/04/06 20:35:29;;;;;;;;;;;19.50;37.50;;;;;;3049641;19;5211;-76
2023/04/06 20:36:32;;;;;;;;;;;19.50;37.50;;;;;;3051243;19;4950;-76
2023/04/06 20:37:34;;;;;;;;;;;19.50;37.50;;;;;;3049195;19;4795;-76
2023/04/06 20:38:35;;;;;;;;;;;19.50;37.60;;;;;;3047351;19;5125;-76
2023/04/06 20:39:35;;;;;;;;;;;19.50;37.50;;;;;;3049869;19;5184;-76
2023/04/06 20:40:36;;;;;;;;;;;19.40;37.60;;;;;;3050242;19;4951;-76
2023/04/06 20:41:37;;;;;;;;;;;19.50;37.60;;;;;;3049346;19;5129;-76
2023/04/06 20:42:38;;;;;;;;;;;19.50;37.70;;;;;;3050829;19;5471;-76
2023/04/06 20:43:38;;;;;;;;;;;19.50;37.70;;;;;;3050359;19;4886;-76
2023/04/06 20:44:39;;;;;;;;;;;19.50;37.70;;;;;;3050910;19;5029;-75
2023/04/06 20:45:40;;;;;;;;;;;19.50;37.70;;;;;;3051346;19;5078;-76
2023/04/06 20:46:42;;;;;;;;;;;19.50;37.80;;;;;;3053335;19;5000;-77
2023/04/06 20:47:42;;;;;;;;;;;19.50;37.70;;;;;;3052961;19;4693;-76
2023/04/06 20:48:43;;;;;;;;;;;19.50;37.80;;;;;;3051966;19;5331;-77
2023/04/06 20:49:44;;;;;;;;;;;19.50;37.80;;;;;;3052051;19;5506;-76
2023/04/06 20:50:44;;;;;;;;;;;19.50;37.80;;;;;;3048701;19;5061;-76
2023/04/06 20:51:45;;;;;;;;;;;19.40;37.90;;;;;;3045862;19;5205;-76
2023/04/06 20:52:47;;;;;;;;;;;19.40;37.90;;;;;;3048666;19;5257;-77
2023/04/06 20:53:48;;;;;;;;;;;19.40;37.80;;;;;;3048822;19;5018;-77
2023/04/06 20:54:49;;;;;;;;;;;19.40;37.90;;;;;;3046347;19;5053;-76
2023/04/06 20:55:50;;;;;;;;;;;19.40;37.90;;;;;;3049490;19;5469;-76
2023/04/06 20:56:51;;;;;;;;;;;19.40;38.00;;;;;;3047880;19;5119;-76
2023/04/06 20:57:51;;;;;;;;;;;19.40;38.00;;;;;;3047197;19;6128;-77
2023/04/06 20:58:52;;;;;;;;;;;19.40;38.00;;;;;;3046959;19;5210;-77
2023/04/06 20:59:53;;;;;;;;;;;19.40;38.00;;;;;;3046655;19;4462;-76
2023/04/06 21:00:54;;;;;;;;;;;19.40;37.90;;;;;;3046428;19;5444;-77
2023/04/06 21:01:54;;;;;;;;;;;19.40;37.60;;;;;;3047571;19;5076;-76
2023/04/06 21:02:55;;;;;;;;;;;19.40;38.10;;;;;;3046801;19;4749;-73
2023/04/06 21:03:56;;;;;;;;;;;19.40;38.10;;;;;;3048448;19;6493;-73
2023/04/06 21:04:56;;;;;;;;;;;19.40;38.00;;;;;;3045074;19;4998;-73
2023/04/06 21:05:57;;;;;;;;;;;19.40;38.10;;;;;;3048880;19;4975;-73
2023/04/06 21:06:58;;;;;;;;;;;19.40;38.00;;;;;;3045505;19;4873;-73
2023/04/06 21:07:58;;;;;;;;;;;19.40;38.00;;;;;;3046917;19;5319;-73
2023/04/06 21:08:59;;;;;;;;;;;19.30;38.10;;;;;;3048797;19;5066;-73
2023/04/06 21:10:00;;;;;;;;;;;19.30;38.00;;;;;;3048804;19;5558;-73
2023/04/06 21:11:00;;;;;;;;;;;19.30;38.10;;;;;;3047271;19;4826;-73
2023/04/06 21:12:02;;;;;;;;;;;19.30;38.00;;;;;;3046903;19;4465;-73
2023/04/06 21:13:02;;;;;;;;;;;19.30;38.20;;;;;;3044981;19;4992;-74
2023/04/06 21:14:03;;;;;;;;;;;19.30;38.00;;;;;;3047149;19;5042;-73
2023/04/06 21:15:04;;;;;;;;;;;19.30;38.20;;;;;;3044132;19;4779;-73
2023/04/06 21:16:05;;;;;;;;;;;19.30;38.20;;;;;;3045756;19;4492;-73
2023/04/06 21:17:06;;;;;;;;;;;19.30;38.10;;;;;;3049910;19;5205;-73
2023/04/06 21:18:07;;;;;;;;;;;19.30;38.20;;;;;;3049392;19;5387;-73
2023/04/06 21:19:07;;;;;;;;;;;19.30;38.20;;;;;;3050057;19;5043;-73
2023/04/06 21:20:09;;;;;;;;;;;19.30;38.20;;;;;;3048917;19;5102;-73
2023/04/06 21:21:09;;;;;;;;;;;19.30;38.30;;;;;;3046768;19;5321;-73
2023/04/06 21:22:10;;;;;;;;;;;19.30;38.20;;;;;;3050549;19;5117;-73
2023/04/06 21:23:11;;;;;;;;;;;19.30;38.20;;;;;;3049799;19;5566;-73
2023/04/06 21:24:12;;;;;;;;;;;19.30;38.40;;;;;;3052646;19;5406;-73
2023/04/06 21:25:12;;;;;;;;;;;19.30;38.40;;;;;;3049790;19;5053;-73
2023/04/06 21:26:13;;;;;;;;;;;19.30;38.30;;;;;;3050898;19;4449;-73
2023/04/06 21:27:14;;;;;;;;;;;19.30;38.30;;;;;;3051875;19;4988;-73
2023/04/06 21:28:14;;;;;;;;;;;19.30;38.40;;;;;;3051080;19;4825;-73
2023/04/06 21:29:15;;;;;;;;;;;19.20;38.40;;;;;;3050091;19;5326;-73
2023/04/06 21:30:16;;;;;;;;;;;19.30;38.40;;;;;;3049121;19;5037;-73
2023/04/06 21:31:18;;;;;;;;;;;19.30;38.40;;;;;;3048968;19;5224;-73
2023/04/06 21:32:19;;;;;;;;;;;19.30;38.50;;;;;;3049525;19;4595;-73
2023/04/06 21:33:19;;;;;;;;;;;19.20;38.50;;;;;;3049340;19;5423;-72
2023/04/06 21:34:20;;;;;;;;;;;19.20;38.40;;;;;;3050922;19;4911;-73
2023/04/06 21:35:21;;;;;;;;;;;19.20;38.40;;;;;;3052550;19;5455;-73
2023/04/06 21:36:21;;;;;;;;;;;19.20;38.60;;;;;;3053354;19;5004;-73
2023/04/06 21:37:22;;;;;;;;;;;19.20;38.50;;;;;;3051500;19;5357;-73
2023/04/06 21:38:23;;;;;;;;;;;19.20;38.40;;;;;;3050462;19;5205;-73
2023/04/06 21:39:24;;;;;;;;;;;19.20;38.50;;;;;;3049132;19;4999;-73
2023/04/06 21:40:24;;;;;;;;;;;19.20;38.40;;;;;;3050495;19;5036;-73
2023/04/06 21:41:27;;;;;;;;;;;19.20;38.50;;;;;;3050369;19;5046;-73
2023/04/06 21:42:28;;;;;;;;;;;19.20;38.50;;;;;;3051032;19;5055;-73
2023/04/06 21:43:29;;;;;;;;;;;19.20;38.60;;;;;;3049982;19;5065;-73
2023/04/06 21:44:29;;;;;;;;;;;19.20;38.40;;;;;;3050908;19;5100;-72
2023/04/06 21:45:31;;;;;;;;;;;19.20;38.50;;;;;;3047555;19;5021;-73
2023/04/06 21:46:32;;;;;;;;;;;19.20;38.50;;;;;;3051441;19;5461;-73
2023/04/06 21:47:33;;;;;;;;;;;19.20;38.60;;;;;;3048621;19;4749;-73
2023/04/06 21:48:34;;;;;;;;;;;19.20;38.60;;;;;;3051372;19;5119;-73
2023/04/06 21:49:35;;;;;;;;;;;19.20;38.60;;;;;;3049843;19;5183;-72
2023/04/06 21:50:39;;;;;;;;;;;19.20;38.60;;;;;;3051350;19;5052;-73
2023/04/06 21:51:40;;;;;;;;;;;19.20;38.60;;;;;;3051032;19;5025;-73
2023/04/06 21:52:41;;;;;;;;;;;19.20;38.70;;;;;;3048474;19;4538;-73
2023/04/06 21:53:41;;;;;;;;;;;19.20;38.60;;;;;;3047670;19;5032;-75
2023/04/06 21:54:42;;;;;;;;;;;19.20;38.60;;;;;;3049837;19;5108;-72
2023/04/06 21:55:43;;;;;;;;;;;19.20;38.60;;;;;;3046940;19;5052;-73
2023/04/06 21:56:44;;;;;;;;;;;19.20;38.60;;;;;;3049677;19;5004;-73
2023/04/06 21:57:45;;;;;;;;;;;19.20;38.70;;;;;;3045497;19;5543;-72
2023/04/06 21:58:45;;;;;;;;;;;19.20;38.70;;;;;;3045814;19;5675;-72
2023/04/06 21:59:46;;;;;;;;;;;19.20;38.60;;;;;;3049218;19;5018;-73
2023/04/06 22:00:47;;;;;;;;;;;19.20;38.60;;;;;;3046683;19;5410;-72
2023/04/06 22:01:48;;;;;;;;;;;19.10;38.70;;;;;;3050633;19;4713;-73
2023/04/06 22:02:48;;;;;;;;;;;19.20;38.70;;;;;;3047593;19;5198;-72
2023/04/06 22:03:49;;;;;;;;;;;19.10;38.60;;;;;;3046994;19;5693;-72
2023/04/06 22:04:49;;;;;;;;;;;19.10;38.60;;;;;;3046913;19;5513;-72
2023/04/06 22:05:50;;;;;;;;;;;19.10;38.70;;;;;;3048522;19;5459;-72
2023/04/06 22:06:51;;;;;;;;;;;19.10;38.70;;;;;;3047831;19;5384;-72
2023/04/06 22:07:52;;;;;;;;;;;19.10;38.70;;;;;;3046771;19;5059;-72
2023/04/06 22:08:52;;;;;;;;;;;19.10;38.80;;;;;;3049119;19;5128;-72
2023/04/06 22:09:53;;;;;;;;;;;19.10;38.70;;;;;;3049704;19;5065;-73
2023/04/06 22:10:54;;;;;;;;;;;19.10;38.90;;;;;;3050393;19;5017;-73
2023/04/06 22:11:54;;;;;;;;;;;19.10;38.60;;;;;;3049369;19;5377;-72
2023/04/06 22:12:55;;;;;;;;;;;19.10;38.70;;;;;;3050535;19;5100;-75
2023/04/06 22:13:56;;;;;;;;;;;19.10;38.80;;;;;;3048726;19;5422;-75
2023/04/06 22:14:56;;;;;;;;;;;19.10;38.70;;;;;;3045796;19;5010;-75
2023/04/06 22:15:57;;;;;;;;;;;19.10;38.80;;;;;;3048748;19;5043;-75
2023/04/06 22:16:58;;;;;;;;;;;19.10;38.70;;;;;;3049349;19;5112;-74
2023/04/06 22:17:59;;;;;;;;;;;19.10;38.70;;;;;;3046409;19;5326;-75
2023/04/06 22:19:00;;;;;;;;;;;19.10;38.70;;;;;;3044128;19;4996;-75
2023/04/06 22:20:01;;;;;;;;;;;19.10;38.80;;;;;;3047698;19;5010;-74
2023/04/06 22:21:02;;;;;;;;;;;19.10;38.70;;;;;;3048988;19;4905;-75